Time;durP1;ratioP1;P1;durP2;ratioP2;P2;SDS_P1;SDS_P2;PMS_P1;PMS_P2;Temp;Humidity;BMP_temperature;BMP_pressure;BME280_temperature;BME280_humidity;BME280_pressure;Samples;Min_cycle;Max_cycle;Signal;HPM_P1;HPM_P2
2021/12/31 00:00:08;;;;;;;;;;;13.40;99.90;;;;;;5134374;27;19907;-76
2021/12/31 00:02:33;;;;;;;;;;;13.50;99.90;;;;;;5153589;27;20355;-77
2021/12/31 00:04:59;;;;;;;;;;;13.50;99.90;;;;;;5152773;27;19922;-76
2021/12/31 00:07:25;;;;;;;;;;;13.50;99.90;;;;;;5153491;27;19911;-76
2021/12/31 00:09:50;;;;;;;;;;;13.50;99.90;;;;;;5152456;27;19971;-76
2021/12/31 00:12:16;;;;;;;;;;;13.50;99.90;;;;;;5153906;27;19914;-77
2021/12/31 00:14:42;;;;;;;;;;;13.50;99.90;;;;;;5153055;27;19915;-77
2021/12/31 00:17:08;;;;;;;;;;;13.50;99.90;;;;;;5134777;27;20374;-77
2021/12/31 00:19:39;;;;;;;;;;;13.50;99.90;;;;;;5155155;27;19907;-77
2021/12/31 00:22:24;;;;;;;;;;;13.50;99.90;;;;;;5156391;27;19907;-77
2021/12/31 00:24:49;;;;;;;;;;;13.50;99.90;;;;;;5156292;27;19911;-77
2021/12/31 00:27:15;;;;;;;;;;;13.60;99.90;;;;;;5157125;27;19914;-77
2021/12/31 00:29:40;;;;;;;;;;;13.60;99.90;;;;;;5138513;27;20241;-77
2021/12/31 00:32:06;;;;;;;;;;;13.60;99.90;;;;;;5156120;27;19907;-77
2021/12/31 00:34:32;;;;;;;;;;;13.60;99.90;;;;;;5156932;27;19962;-77
2021/12/31 00:36:57;;;;;;;;;;;13.60;99.90;;;;;;5156428;27;19914;-76
2021/12/31 00:39:23;;;;;;;;;;;13.60;99.90;;;;;;5156903;27;19933;-76
2021/12/31 00:41:48;;;;;;;;;;;13.60;99.90;;;;;;5156101;27;20348;-76
2021/12/31 00:44:14;;;;;;;;;;;13.60;99.90;;;;;;5156818;27;19907;-76
2021/12/31 00:46:40;;;;;;;;;;;13.60;99.90;;;;;;5156755;27;19958;-77
2021/12/31 00:49:06;;;;;;;;;;;13.50;99.90;;;;;;5155673;27;19909;-78
2021/12/31 00:51:32;;;;;;;;;;;13.50;99.90;;;;;;5156649;27;20426;-77
2021/12/31 00:53:58;;;;;;;;;;;13.50;99.90;;;;;;5155764;27;19915;-78
2021/12/31 00:56:24;;;;;;;;;;;13.50;99.90;;;;;;5156188;27;19919;-77
2021/12/31 00:58:50;;;;;;;;;;;13.50;99.90;;;;;;5154760;27;20424;-78
2021/12/31 01:01:21;;;;;;;;;;;13.50;99.90;;;;;;5145984;27;19911;-77
2021/12/31 01:03:47;;;;;;;;;;;13.50;99.90;;;;;;5145641;27;19961;-78
2021/12/31 01:06:13;;;;;;;;;;;13.40;99.90;;;;;;5152578;27;20380;-77
2021/12/31 01:08:39;;;;;;;;;;;13.40;99.90;;;;;;5155526;27;19915;-77
2021/12/31 01:11:05;;;;;;;;;;;13.40;99.90;;;;;;5136324;27;19903;-77
2021/12/31 01:14:08;;;;;;;;;;;13.40;99.90;;;;;;5137262;27;19915;-77
2021/12/31 01:16:25;;;;;;;;;;;13.50;99.90;;;;;;5130393;27;19918;-77
2021/12/31 01:21:17;;;;;;;;;;;13.50;99.90;;;;;;5134778;27;19914;-77
2021/12/31 01:23:42;;;;;;;;;;;13.50;99.90;;;;;;5134757;27;20412;-77
2021/12/31 01:26:08;;;;;;;;;;;13.50;99.90;;;;;;5134128;27;19994;-75
2021/12/31 01:28:34;;;;;;;;;;;13.50;99.90;;;;;;5134635;27;19908;-75
2021/12/31 01:30:59;;;;;;;;;;;13.50;99.90;;;;;;5133176;27;20022;-76
2021/12/31 01:33:25;;;;;;;;;;;13.40;99.90;;;;;;5134933;27;19915;-76
2021/12/31 01:35:51;;;;;;;;;;;13.40;99.90;;;;;;5133412;27;19930;-75
2021/12/31 01:38:16;;;;;;;;;;;13.30;99.90;;;;;;5134188;27;19959;-75
2021/12/31 01:40:43;;;;;;;;;;;13.30;99.90;;;;;;5150750;27;19965;-75
2021/12/31 01:43:10;;;;;;;;;;;13.30;99.90;;;;;;5154284;27;19918;-75
2021/12/31 01:45:43;;;;;;;;;;;13.40;99.90;;;;;;5154866;27;19915;-75
2021/12/31 01:48:21;;;;;;;;;;;13.40;99.90;;;;;;5147103;27;20372;-75
2021/12/31 01:50:47;;;;;;;;;;;13.50;99.90;;;;;;5115349;27;20352;-76
2021/12/31 01:53:13;;;;;;;;;;;13.50;99.90;;;;;;5133741;27;19923;-76
2021/12/31 01:55:39;;;;;;;;;;;13.50;99.90;;;;;;5134124;27;20373;-75
2021/12/31 01:58:07;;;;;;;;;;;13.50;99.90;;;;;;5133288;27;19972;-76
2021/12/31 02:00:36;;;;;;;;;;;13.50;99.90;;;;;;5134157;27;19908;-76
2021/12/31 02:03:03;;;;;;;;;;;13.40;99.90;;;;;;5133428;27;19908;-75
2021/12/31 02:05:29;;;;;;;;;;;13.40;99.90;;;;;;5134818;27;20344;-75
2021/12/31 02:07:54;;;;;;;;;;;13.40;99.90;;;;;;5115058;27;19907;-75
2021/12/31 02:10:20;;;;;;;;;;;13.40;99.90;;;;;;5115822;27;20310;-75
2021/12/31 02:12:46;;;;;;;;;;;13.30;99.90;;;;;;5133999;27;19951;-75
2021/12/31 02:15:13;;;;;;;;;;;13.30;99.90;;;;;;5133536;27;19915;-75
2021/12/31 02:17:38;;;;;;;;;;;13.30;99.90;;;;;;5134213;27;19933;-75
2021/12/31 02:20:06;;;;;;;;;;;13.30;99.90;;;;;;5133287;27;19907;-75
2021/12/31 02:22:38;;;;;;;;;;;13.30;99.90;;;;;;5134042;27;19908;-75
2021/12/31 02:25:05;;;;;;;;;;;13.30;99.90;;;;;;5133066;27;19918;-75
2021/12/31 02:27:35;;;;;;;;;;;13.30;99.90;;;;;;5134024;27;19952;-75
2021/12/31 02:30:00;;;;;;;;;;;13.30;99.90;;;;;;5114716;27;19908;-75
2021/12/31 02:32:26;;;;;;;;;;;13.30;99.90;;;;;;5115679;27;19907;-75
2021/12/31 02:34:51;;;;;;;;;;;13.30;99.90;;;;;;5133091;27;20264;-76
2021/12/31 02:37:17;;;;;;;;;;;13.30;99.90;;;;;;5131717;27;20006;-75
2021/12/31 02:39:43;;;;;;;;;;;13.40;99.90;;;;;;5133714;27;19908;-75
2021/12/31 02:42:09;;;;;;;;;;;13.40;99.90;;;;;;5132394;27;20030;-75
2021/12/31 02:44:35;;;;;;;;;;;13.40;99.90;;;;;;5133795;27;20375;-75
2021/12/31 02:47:04;;;;;;;;;;;13.30;99.90;;;;;;5132996;27;19915;-75
2021/12/31 02:49:34;;;;;;;;;;;13.30;99.90;;;;;;5133183;27;20299;-75
2021/12/31 02:52:02;;;;;;;;;;;13.30;99.90;;;;;;5114323;27;19952;-75
2021/12/31 02:54:28;;;;;;;;;;;13.30;99.90;;;;;;5133640;27;19965;-75
2021/12/31 02:56:54;;;;;;;;;;;13.30;99.90;;;;;;5132884;27;19919;-75
2021/12/31 02:59:19;;;;;;;;;;;13.30;99.90;;;;;;5133521;27;19973;-75
2021/12/31 03:01:45;;;;;;;;;;;13.20;99.90;;;;;;5132984;27;19952;-75
2021/12/31 03:04:12;;;;;;;;;;;13.30;99.90;;;;;;5132346;27;20548;-75
2021/12/31 03:06:39;;;;;;;;;;;13.30;99.90;;;;;;5133813;28;20007;-75
2021/12/31 03:09:04;;;;;;;;;;;13.30;99.90;;;;;;5132676;28;19908;-75
2021/12/31 03:11:30;;;;;;;;;;;13.30;99.90;;;;;;5133369;28;19914;-75
2021/12/31 03:13:57;;;;;;;;;;;13.40;99.90;;;;;;5132671;28;20279;-75
2021/12/31 03:16:23;;;;;;;;;;;13.30;99.90;;;;;;5133745;28;20002;-75
2021/12/31 03:18:49;;;;;;;;;;;13.30;99.90;;;;;;5133163;28;20055;-75
2021/12/31 03:21:21;;;;;;;;;;;13.40;99.90;;;;;;5132515;28;19973;-75
2021/12/31 03:23:48;;;;;;;;;;;13.40;99.90;;;;;;5133410;28;20338;-75
2021/12/31 03:26:13;;;;;;;;;;;13.30;99.90;;;;;;5132468;28;20360;-75
2021/12/31 03:28:39;;;;;;;;;;;13.40;99.90;;;;;;5133443;28;19911;-75
2021/12/31 03:31:04;;;;;;;;;;;13.40;99.90;;;;;;5132601;28;20363;-75
2021/12/31 03:33:30;;;;;;;;;;;13.40;99.90;;;;;;5133201;28;19915;-75
2021/12/31 03:35:55;;;;;;;;;;;13.30;99.90;;;;;;5132333;27;20006;-75
2021/12/31 03:38:21;;;;;;;;;;;13.40;99.90;;;;;;5132843;28;19972;-75
2021/12/31 03:40:47;;;;;;;;;;;13.50;99.90;;;;;;5132818;28;20441;-75
2021/12/31 03:43:13;;;;;;;;;;;13.50;99.90;;;;;;5132074;28;19908;-75
2021/12/31 03:45:40;;;;;;;;;;;13.50;99.90;;;;;;5133043;28;19926;-75
2021/12/31 03:48:06;;;;;;;;;;;13.40;99.90;;;;;;5113846;28;19908;-75
2021/12/31 03:50:31;;;;;;;;;;;13.40;99.90;;;;;;5133090;28;20389;-75
2021/12/31 03:52:57;;;;;;;;;;;13.50;99.90;;;;;;5132833;27;19907;-76
2021/12/31 03:55:23;;;;;;;;;;;13.50;99.90;;;;;;5136877;27;20416;-75
2021/12/31 03:57:48;;;;;;;;;;;13.50;99.90;;;;;;5136834;27;19990;-75
2021/12/31 04:00:14;;;;;;;;;;;13.50;99.90;;;;;;5136176;27;19904;-75
2021/12/31 04:02:40;;;;;;;;;;;13.50;99.90;;;;;;5136931;27;20363;-75
2021/12/31 04:05:06;;;;;;;;;;;13.60;99.90;;;;;;5136036;27;19908;-75
2021/12/31 04:07:31;;;;;;;;;;;13.60;99.90;;;;;;5136864;27;19929;-75
2021/12/31 04:09:57;;;;;;;;;;;13.60;99.90;;;;;;5136094;27;19915;-75
2021/12/31 04:12:22;;;;;;;;;;;13.60;99.90;;;;;;5144577;27;20369;-75
2021/12/31 04:14:48;;;;;;;;;;;13.60;99.90;;;;;;5157194;27;20491;-75
2021/12/31 04:17:14;;;;;;;;;;;13.60;99.90;;;;;;5156613;27;19907;-75
2021/12/31 04:19:41;;;;;;;;;;;13.60;99.90;;;;;;5157331;27;19907;-75
2021/12/31 04:22:08;;;;;;;;;;;13.50;99.90;;;;;;5156417;27;19914;-76
2021/12/31 04:27:08;;;;;;;;;;;13.60;99.90;;;;;;5156428;27;20002;-75
2021/12/31 04:29:34;;;;;;;;;;;13.70;99.90;;;;;;5157083;27;19907;-76
2021/12/31 04:32:03;;;;;;;;;;;13.70;99.90;;;;;;5156211;27;20279;-76
2021/12/31 04:34:29;;;;;;;;;;;13.70;99.90;;;;;;5156756;27;19938;-75
2021/12/31 04:36:54;;;;;;;;;;;13.70;99.90;;;;;;5156702;27;20347;-76
2021/12/31 04:39:20;;;;;;;;;;;13.60;99.90;;;;;;5155852;27;19911;-75
2021/12/31 04:41:46;;;;;;;;;;;13.60;99.90;;;;;;5156686;27;20356;-75
2021/12/31 04:44:11;;;;;;;;;;;13.60;99.90;;;;;;5156009;27;19907;-75
2021/12/31 04:46:37;;;;;;;;;;;13.60;99.90;;;;;;5156721;27;19915;-75
2021/12/31 04:49:03;;;;;;;;;;;13.50;99.90;;;;;;5140781;27;19934;-76
2021/12/31 04:51:28;;;;;;;;;;;13.50;99.90;;;;;;5136242;27;19912;-75
2021/12/31 04:53:54;;;;;;;;;;;13.50;99.90;;;;;;5135677;27;19916;-75
2021/12/31 04:56:20;;;;;;;;;;;13.50;99.90;;;;;;5134586;27;19916;-75
2021/12/31 04:58:45;;;;;;;;;;;13.50;99.90;;;;;;5135889;27;19914;-75
2021/12/31 05:01:11;;;;;;;;;;;13.50;99.90;;;;;;5134703;27;20245;-75
2021/12/31 05:03:36;;;;;;;;;;;13.50;99.90;;;;;;5135502;27;19908;-75
2021/12/31 05:06:02;;;;;;;;;;;13.50;99.90;;;;;;5133976;27;19908;-75
2021/12/31 05:08:27;;;;;;;;;;;13.50;99.90;;;;;;5135240;27;19914;-75
2021/12/31 05:10:53;;;;;;;;;;;13.50;99.90;;;;;;5117202;27;19907;-75
2021/12/31 05:13:20;;;;;;;;;;;13.50;99.90;;;;;;5134530;27;19919;-75
2021/12/31 05:15:48;;;;;;;;;;;13.60;99.90;;;;;;5135637;27;19907;-75
2021/12/31 05:18:13;;;;;;;;;;;13.60;99.90;;;;;;5134342;27;20356;-75
2021/12/31 05:20:39;;;;;;;;;;;13.50;99.90;;;;;;5139321;27;19918;-75
2021/12/31 05:23:05;;;;;;;;;;;13.50;99.90;;;;;;5141354;27;19911;-75
2021/12/31 05:25:31;;;;;;;;;;;13.50;99.90;;;;;;5155772;27;20412;-75
2021/12/31 05:27:56;;;;;;;;;;;13.50;99.90;;;;;;5156011;27;19907;-75
2021/12/31 05:30:22;;;;;;;;;;;13.50;99.90;;;;;;5154981;27;19968;-75
2021/12/31 05:32:48;;;;;;;;;;;13.40;99.90;;;;;;5155779;27;19912;-75
2021/12/31 05:35:14;;;;;;;;;;;13.40;99.90;;;;;;5154781;27;19919;-75
2021/12/31 05:37:39;;;;;;;;;;;13.50;99.90;;;;;;5156306;27;19911;-75
2021/12/31 05:40:05;;;;;;;;;;;13.50;99.90;;;;;;5154429;27;19927;-75
2021/12/31 05:42:31;;;;;;;;;;;13.50;99.90;;;;;;5155548;27;20378;-75
2021/12/31 05:44:56;;;;;;;;;;;13.50;99.90;;;;;;5136984;27;19907;-75
2021/12/31 05:47:23;;;;;;;;;;;13.60;99.90;;;;;;5154657;27;20461;-75
2021/12/31 05:49:49;;;;;;;;;;;13.60;99.90;;;;;;5155348;27;19907;-76
2021/12/31 05:52:14;;;;;;;;;;;13.60;99.90;;;;;;5154685;27;19907;-76
2021/12/31 05:54:40;;;;;;;;;;;13.60;99.90;;;;;;5154911;27;20386;-75
2021/12/31 05:57:06;;;;;;;;;;;13.50;99.90;;;;;;5154251;27;19919;-76
2021/12/31 05:59:31;;;;;;;;;;;13.50;99.90;;;;;;5154744;27;19907;-76
2021/12/31 06:01:57;;;;;;;;;;;13.50;99.90;;;;;;5155059;27;19932;-76
2021/12/31 06:04:22;;;;;;;;;;;13.40;99.90;;;;;;5154577;27;19904;-76
2021/12/31 06:06:48;;;;;;;;;;;13.40;99.90;;;;;;5154983;27;19915;-75
2021/12/31 06:09:14;;;;;;;;;;;13.50;99.90;;;;;;5153961;27;19907;-75
2021/12/31 06:11:43;;;;;;;;;;;13.40;99.90;;;;;;5155105;27;19907;-75
2021/12/31 06:14:09;;;;;;;;;;;13.40;99.90;;;;;;5153993;27;19915;-76
2021/12/31 06:16:38;;;;;;;;;;;13.30;99.90;;;;;;5154121;27;19907;-75
2021/12/31 06:19:04;;;;;;;;;;;13.20;99.90;;;;;;5154991;27;20355;-76
2021/12/31 06:21:32;;;;;;;;;;;13.30;99.90;;;;;;5154485;27;20363;-76
2021/12/31 06:23:57;;;;;;;;;;;13.20;99.90;;;;;;5155241;27;19948;-76
2021/12/31 06:26:23;;;;;;;;;;;13.20;99.90;;;;;;5154027;27;19911;-75
2021/12/31 06:28:48;;;;;;;;;;;13.20;99.90;;;;;;5154759;27;19911;-75
2021/12/31 06:31:14;;;;;;;;;;;13.20;99.90;;;;;;5135435;27;19913;-75
2021/12/31 06:33:39;;;;;;;;;;;13.20;99.90;;;;;;5154869;27;19973;-75
2021/12/31 06:36:05;;;;;;;;;;;13.20;99.90;;;;;;5147739;27;20417;-75
2021/12/31 06:38:31;;;;;;;;;;;13.30;99.90;;;;;;5133406;27;19998;-75
2021/12/31 06:40:56;;;;;;;;;;;13.30;99.90;;;;;;5133755;27;19907;-75
2021/12/31 06:43:22;;;;;;;;;;;13.30;99.90;;;;;;5132896;27;19953;-76
2021/12/31 06:45:47;;;;;;;;;;;13.30;99.90;;;;;;5134004;27;19907;-76
2021/12/31 06:48:13;;;;;;;;;;;13.40;99.90;;;;;;5132790;27;19994;-76
2021/12/31 06:50:39;;;;;;;;;;;13.40;99.90;;;;;;5133658;27;20283;-75
2021/12/31 06:53:04;;;;;;;;;;;13.40;99.90;;;;;;5133718;27;19907;-76
2021/12/31 06:55:30;;;;;;;;;;;13.40;99.90;;;;;;5132804;27;20297;-76
2021/12/31 06:57:56;;;;;;;;;;;13.40;99.90;;;;;;5137759;27;19915;-75
2021/12/31 07:00:21;;;;;;;;;;;13.40;99.90;;;;;;5132754;27;19960;-76
2021/12/31 07:02:47;;;;;;;;;;;13.50;99.90;;;;;;5133112;27;19946;-75
2021/12/31 07:05:12;;;;;;;;;;;13.40;99.90;;;;;;5132948;27;19907;-76
2021/12/31 07:07:38;;;;;;;;;;;13.30;99.90;;;;;;5133082;28;20274;-76
2021/12/31 07:10:05;;;;;;;;;;;13.30;99.90;;;;;;5133622;28;19908;-76
2021/12/31 07:12:31;;;;;;;;;;;13.30;99.90;;;;;;5132472;27;19915;-75
2021/12/31 07:14:56;;;;;;;;;;;13.20;99.90;;;;;;5132619;28;20379;-76
2021/12/31 07:17:22;;;;;;;;;;;13.20;99.90;;;;;;5132384;28;19933;-75
2021/12/31 07:19:47;;;;;;;;;;;13.20;99.90;;;;;;5133238;28;19911;-75
2021/12/31 07:22:13;;;;;;;;;;;13.10;99.90;;;;;;5132138;28;20318;-75
2021/12/31 07:24:38;;;;;;;;;;;13.10;99.90;;;;;;5133207;28;19912;-75
2021/12/31 07:27:04;;;;;;;;;;;13.10;99.90;;;;;;5132997;28;19914;-76
2021/12/31 07:29:30;;;;;;;;;;;13.10;99.90;;;;;;5135612;27;19904;-76
2021/12/31 07:31:55;;;;;;;;;;;13.10;99.90;;;;;;5137189;27;19908;-75
2021/12/31 07:34:21;;;;;;;;;;;13.10;99.90;;;;;;5136097;27;20382;-76
2021/12/31 07:36:46;;;;;;;;;;;13.10;99.90;;;;;;5137134;27;19951;-76
2021/12/31 07:39:13;;;;;;;;;;;13.20;99.90;;;;;;5136461;27;19907;-76
2021/12/31 07:41:39;;;;;;;;;;;13.10;99.90;;;;;;5137164;27;19911;-76
2021/12/31 07:44:06;;;;;;;;;;;13.20;99.90;;;;;;5137196;27;20014;-76
2021/12/31 07:46:32;;;;;;;;;;;13.20;99.90;;;;;;5136145;27;19999;-76
2021/12/31 07:48:57;;;;;;;;;;;13.30;99.90;;;;;;5136608;27;19981;-75
2021/12/31 07:51:23;;;;;;;;;;;13.40;99.90;;;;;;5136175;27;20405;-76
2021/12/31 07:53:48;;;;;;;;;;;13.30;99.90;;;;;;5136948;27;19919;-76
2021/12/31 07:56:18;;;;;;;;;;;13.30;99.90;;;;;;5135749;27;19919;-76
2021/12/31 07:58:44;;;;;;;;;;;13.30;99.90;;;;;;5136909;27;19953;-76
2021/12/31 08:01:10;;;;;;;;;;;13.30;99.90;;;;;;5118314;27;20345;-76
2021/12/31 08:03:36;;;;;;;;;;;13.20;99.90;;;;;;5136513;27;20020;-76
2021/12/31 08:06:01;;;;;;;;;;;13.20;99.90;;;;;;5136463;27;19915;-75
2021/12/31 08:08:27;;;;;;;;;;;13.20;99.90;;;;;;5135916;27;20314;-76
2021/12/31 08:10:52;;;;;;;;;;;13.10;99.90;;;;;;5136629;27;19915;-76
2021/12/31 08:13:18;;;;;;;;;;;13.10;99.90;;;;;;5135380;27;20348;-76
2021/12/31 08:15:43;;;;;;;;;;;13.00;99.90;;;;;;5136343;27;19907;-76
2021/12/31 08:18:10;;;;;;;;;;;13.10;99.90;;;;;;5118224;27;19934;-76
2021/12/31 08:20:36;;;;;;;;;;;13.00;99.90;;;;;;5135782;27;19950;-75
2021/12/31 08:23:06;;;;;;;;;;;13.00;99.90;;;;;;5136491;27;19952;-75
2021/12/31 08:25:32;;;;;;;;;;;12.90;99.90;;;;;;5134891;27;20432;-76
2021/12/31 08:27:58;;;;;;;;;;;12.90;99.90;;;;;;5156117;27;19918;-76
2021/12/31 08:30:23;;;;;;;;;;;12.90;99.90;;;;;;5131006;27;19911;-76
2021/12/31 08:32:49;;;;;;;;;;;12.90;99.90;;;;;;5142517;27;20368;-76
2021/12/31 08:35:14;;;;;;;;;;;12.90;99.90;;;;;;5143613;27;19916;-76
2021/12/31 08:37:40;;;;;;;;;;;12.90;99.90;;;;;;5135252;27;19908;-76
2021/12/31 08:40:06;;;;;;;;;;;12.80;99.90;;;;;;5135098;27;19907;-76
2021/12/31 08:42:31;;;;;;;;;;;12.80;99.90;;;;;;5135660;27;19907;-76
2021/12/31 08:44:57;;;;;;;;;;;12.80;99.90;;;;;;5136270;27;19908;-75
2021/12/31 08:47:23;;;;;;;;;;;12.90;99.90;;;;;;5135266;27;19942;-76
2021/12/31 08:49:49;;;;;;;;;;;12.90;99.90;;;;;;5138092;27;19914;-75
2021/12/31 08:52:15;;;;;;;;;;;12.80;99.90;;;;;;5139709;27;19929;-76
2021/12/31 08:54:40;;;;;;;;;;;12.80;99.90;;;;;;5138243;27;19915;-75
2021/12/31 08:57:06;;;;;;;;;;;12.80;99.90;;;;;;5136882;27;19920;-75
2021/12/31 08:59:31;;;;;;;;;;;12.90;99.90;;;;;;5134574;27;19918;-75
2021/12/31 09:01:58;;;;;;;;;;;12.90;99.90;;;;;;5135542;27;19914;-75
2021/12/31 09:04:23;;;;;;;;;;;12.90;99.90;;;;;;5134244;27;19915;-75
2021/12/31 09:06:49;;;;;;;;;;;12.90;99.90;;;;;;5117039;27;19916;-75
2021/12/31 09:09:14;;;;;;;;;;;13.00;99.90;;;;;;5135419;27;19907;-74
2021/12/31 09:11:41;;;;;;;;;;;13.00;99.90;;;;;;5134608;27;19918;-75
2021/12/31 09:14:06;;;;;;;;;;;13.00;99.90;;;;;;5135271;27;19916;-75
2021/12/31 09:16:32;;;;;;;;;;;13.00;99.90;;;;;;5134172;27;19914;-75
2021/12/31 09:18:57;;;;;;;;;;;13.00;99.90;;;;;;5144182;27;20433;-75
2021/12/31 09:21:23;;;;;;;;;;;13.10;99.90;;;;;;5125937;27;20002;-76
2021/12/31 09:23:49;;;;;;;;;;;13.10;99.90;;;;;;5148265;27;20279;-75
2021/12/31 09:26:15;;;;;;;;;;;13.10;99.90;;;;;;5146192;27;20321;-75
2021/12/31 09:28:41;;;;;;;;;;;13.20;99.90;;;;;;5143920;27;19911;-75
2021/12/31 09:31:08;;;;;;;;;;;13.20;99.90;;;;;;5146450;27;19908;-74
2021/12/31 09:33:34;;;;;;;;;;;13.20;99.90;;;;;;5143188;27;19999;-75
2021/12/31 09:36:00;;;;;;;;;;;13.20;99.90;;;;;;5149894;27;19938;-75
2021/12/31 09:38:26;;;;;;;;;;;13.20;99.90;;;;;;5134137;27;20259;-76
2021/12/31 09:40:51;;;;;;;;;;;13.10;99.90;;;;;;5134598;27;19914;-75
2021/12/31 09:43:17;;;;;;;;;;;13.20;99.90;;;;;;5134710;27;20374;-75
2021/12/31 09:45:44;;;;;;;;;;;13.20;99.90;;;;;;5133496;27;19908;-75
2021/12/31 09:48:11;;;;;;;;;;;13.20;99.90;;;;;;5134387;27;19947;-75
2021/12/31 09:50:39;;;;;;;;;;;13.20;99.90;;;;;;5137062;27;19912;-75
2021/12/31 09:53:05;;;;;;;;;;;13.20;99.90;;;;;;5141676;27;19953;-74
2021/12/31 09:55:40;;;;;;;;;;;13.20;99.90;;;;;;5132739;27;20270;-75
2021/12/31 09:58:07;;;;;;;;;;;13.30;99.90;;;;;;5134584;27;19917;-75
2021/12/31 10:00:33;;;;;;;;;;;13.30;99.90;;;;;;5133638;27;19915;-76
2021/12/31 10:03:28;;;;;;;;;;;13.30;99.90;;;;;;5134151;27;19915;-76
2021/12/31 10:05:57;;;;;;;;;;;13.30;99.90;;;;;;5116398;27;19933;-74
2021/12/31 10:08:26;;;;;;;;;;;13.30;99.90;;;;;;5132772;27;19914;-76
2021/12/31 10:11:02;;;;;;;;;;;13.30;99.90;;;;;;5134138;27;19915;-75
2021/12/31 10:13:28;;;;;;;;;;;13.40;99.90;;;;;;5131805;27;19911;-76
2021/12/31 10:15:55;;;;;;;;;;;13.40;99.90;;;;;;5154647;27;19915;-76
2021/12/31 10:18:27;;;;;;;;;;;13.40;99.90;;;;;;5154625;27;20275;-76
2021/12/31 10:20:53;;;;;;;;;;;13.40;99.90;;;;;;5142129;27;19907;-76
2021/12/31 10:23:19;;;;;;;;;;;13.50;99.90;;;;;;5144441;27;19915;-76
2021/12/31 10:25:45;;;;;;;;;;;13.50;99.90;;;;;;5141600;27;19922;-76
2021/12/31 10:28:12;;;;;;;;;;;13.50;99.90;;;;;;5142141;27;19908;-76
2021/12/31 10:30:38;;;;;;;;;;;13.50;99.90;;;;;;5142135;27;20261;-76
2021/12/31 10:33:03;;;;;;;;;;;13.50;99.90;;;;;;5143098;27;19922;-75
2021/12/31 10:35:45;;;;;;;;;;;13.50;99.90;;;;;;5142065;27;20362;-76
2021/12/31 10:38:14;;;;;;;;;;;13.50;99.90;;;;;;5141542;27;19954;-75
2021/12/31 10:40:40;;;;;;;;;;;13.50;99.90;;;;;;5142813;27;19911;-74
2021/12/31 10:43:10;;;;;;;;;;;13.40;99.90;;;;;;5144736;27;20323;-75
2021/12/31 10:45:39;;;;;;;;;;;13.50;99.90;;;;;;5154055;27;19963;-76
2021/12/31 10:48:06;;;;;;;;;;;13.40;99.90;;;;;;5153746;27;19911;-75
2021/12/31 10:50:32;;;;;;;;;;;13.40;99.90;;;;;;5153587;27;19997;-75
2021/12/31 10:53:01;;;;;;;;;;;13.40;99.90;;;;;;5154322;27;19907;-75
2021/12/31 10:55:30;;;;;;;;;;;13.40;99.90;;;;;;5153379;27;20375;-76
2021/12/31 10:57:59;;;;;;;;;;;13.40;99.90;;;;;;5154430;27;19923;-75
2021/12/31 11:00:33;;;;;;;;;;;13.40;99.90;;;;;;5153395;27;19907;-76
2021/12/31 11:02:58;;;;;;;;;;;13.40;99.90;;;;;;5153526;27;19914;-74
2021/12/31 11:05:24;;;;;;;;;;;13.40;99.90;;;;;;5153897;27;19907;-76
2021/12/31 11:07:51;;;;;;;;;;;13.40;99.90;;;;;;5153699;27;19990;-75
2021/12/31 11:10:16;;;;;;;;;;;13.40;99.90;;;;;;5154668;27;19960;-76
2021/12/31 11:12:46;;;;;;;;;;;13.40;99.90;;;;;;5153214;27;19911;-76
2021/12/31 11:15:12;;;;;;;;;;;13.50;99.90;;;;;;5153867;27;19912;-76
2021/12/31 11:17:38;;;;;;;;;;;13.50;99.90;;;;;;5153154;27;19911;-76
2021/12/31 11:20:05;;;;;;;;;;;13.50;99.90;;;;;;5153953;27;20006;-75
2021/12/31 11:22:31;;;;;;;;;;;13.50;99.90;;;;;;5153177;27;19907;-76
2021/12/31 11:25:15;;;;;;;;;;;13.50;99.90;;;;;;5135338;27;19911;-75
2021/12/31 11:27:45;;;;;;;;;;;13.50;99.90;;;;;;5152890;27;19952;-76
2021/12/31 11:30:25;;;;;;;;;;;13.60;99.90;;;;;;5153286;27;19907;-75
2021/12/31 11:32:52;;;;;;;;;;;13.60;99.90;;;;;;5149921;27;20352;-75
2021/12/31 11:35:28;;;;;;;;;;;13.70;99.90;;;;;;5139962;27;20405;-75
2021/12/31 11:37:54;;;;;;;;;;;13.70;99.90;;;;;;5132586;28;19915;-75
2021/12/31 11:40:27;;;;;;;;;;;13.80;99.90;;;;;;5132416;28;20366;-74
2021/12/31 11:43:12;;;;;;;;;;;13.80;99.90;;;;;;5131992;28;19915;-75
2021/12/31 11:45:38;;;;;;;;;;;13.80;99.90;;;;;;5131419;28;19943;-75
2021/12/31 11:48:27;;;;;;;;;;;13.80;99.90;;;;;;5132250;28;19946;-75
2021/12/31 11:51:03;;;;;;;;;;;13.90;99.90;;;;;;5135704;27;19960;-75
2021/12/31 11:53:28;;;;;;;;;;;13.90;99.90;;;;;;5137362;27;19915;-75
2021/12/31 11:55:54;;;;;;;;;;;13.90;99.90;;;;;;5139787;27;20291;-75
2021/12/31 11:58:36;;;;;;;;;;;13.90;99.90;;;;;;5137857;27;19911;-75
2021/12/31 12:01:21;;;;;;;;;;;14.00;99.90;;;;;;5140655;27;19939;-76
2021/12/31 12:03:46;;;;;;;;;;;14.00;99.90;;;;;;5140883;27;19988;-76
2021/12/31 12:06:32;;;;;;;;;;;14.10;99.90;;;;;;5141566;27;20257;-75
2021/12/31 12:08:57;;;;;;;;;;;14.20;99.90;;;;;;5142623;27;19922;-76
2021/12/31 12:11:43;;;;;;;;;;;14.30;99.90;;;;;;5142775;27;19911;-75
2021/12/31 12:14:27;;;;;;;;;;;14.40;99.90;;;;;;5098262;27;19983;-76
2021/12/31 12:16:59;;;;;;;;;;;14.50;99.90;;;;;;5127470;27;19907;-76
2021/12/31 12:19:43;;;;;;;;;;;14.60;99.90;;;;;;5138207;27;20411;-75
2021/12/31 12:22:09;;;;;;;;;;;14.60;99.90;;;;;;5135706;27;19911;-76
2021/12/31 12:24:35;;;;;;;;;;;14.70;99.90;;;;;;5134736;27;20008;-76
2021/12/31 12:27:01;;;;;;;;;;;14.70;99.90;;;;;;5139048;27;19911;-76
2021/12/31 12:29:27;;;;;;;;;;;14.70;99.90;;;;;;5145351;27;19907;-75
2021/12/31 12:32:09;;;;;;;;;;;14.80;99.90;;;;;;5146285;27;20002;-76
2021/12/31 12:34:35;;;;;;;;;;;14.80;99.90;;;;;;5145250;27;19962;-75
2021/12/31 12:37:00;;;;;;;;;;;14.80;99.90;;;;;;5145659;27;19947;-74
2021/12/31 12:39:26;;;;;;;;;;;14.80;99.90;;;;;;5147099;27;19911;-75
2021/12/31 12:41:52;;;;;;;;;;;14.80;99.90;;;;;;5152068;27;19922;-75
2021/12/31 12:44:17;;;;;;;;;;;14.80;99.90;;;;;;5144046;27;20799;-75
2021/12/31 12:46:56;;;;;;;;;;;14.70;99.90;;;;;;5146629;27;19911;-75
2021/12/31 12:49:24;;;;;;;;;;;14.70;99.90;;;;;;5144496;27;19915;-75
2021/12/31 12:51:50;;;;;;;;;;;14.70;99.90;;;;;;5151591;27;19914;-75
2021/12/31 12:54:21;;;;;;;;;;;14.60;99.90;;;;;;5127026;27;19919;-75
2021/12/31 12:57:00;;;;;;;;;;;14.60;99.90;;;;;;5140072;27;19919;-75
2021/12/31 12:59:26;;;;;;;;;;;14.50;99.90;;;;;;5144904;27;19938;-75
2021/12/31 13:01:52;;;;;;;;;;;14.50;99.90;;;;;;5145898;27;19934;-75
2021/12/31 13:04:18;;;;;;;;;;;14.40;99.90;;;;;;5148817;27;21315;-75
2021/12/31 13:06:44;;;;;;;;;;;14.30;99.90;;;;;;5144864;27;20002;-74
2021/12/31 13:09:13;;;;;;;;;;;14.20;99.90;;;;;;5144311;27;20288;-75
2021/12/31 13:11:39;;;;;;;;;;;14.20;99.90;;;;;;5139517;27;19972;-75
2021/12/31 13:14:11;;;;;;;;;;;14.20;99.90;;;;;;5127234;27;19915;-75
2021/12/31 13:16:37;;;;;;;;;;;14.10;99.90;;;;;;5145097;27;19994;-76
2021/12/31 13:19:07;;;;;;;;;;;14.10;99.90;;;;;;5155163;27;20001;-75
2021/12/31 13:21:34;;;;;;;;;;;14.20;99.90;;;;;;5154663;27;19908;-76
2021/12/31 13:23:59;;;;;;;;;;;14.10;99.90;;;;;;5155123;27;19911;-75
2021/12/31 13:26:27;;;;;;;;;;;14.10;99.90;;;;;;5154948;27;19907;-75
2021/12/31 13:29:19;;;;;;;;;;;14.10;99.90;;;;;;5154228;27;19919;-75
2021/12/31 13:31:44;;;;;;;;;;;14.10;99.90;;;;;;5149036;27;19907;-76
2021/12/31 13:34:14;;;;;;;;;;;14.20;99.90;;;;;;5136315;27;19937;-75
2021/12/31 13:36:47;;;;;;;;;;;14.20;99.90;;;;;;5167340;27;19911;-75
2021/12/31 13:39:14;;;;;;;;;;;14.20;99.90;;;;;;5171372;27;19913;-75
2021/12/31 13:41:53;;;;;;;;;;;14.20;99.90;;;;;;5164149;27;19927;-77
2021/12/31 13:44:20;;;;;;;;;;;14.20;99.90;;;;;;5145168;27;20272;-76
2021/12/31 13:46:47;;;;;;;;;;;14.10;99.90;;;;;;5153920;27;19931;-76
2021/12/31 13:49:21;;;;;;;;;;;14.10;99.90;;;;;;5147614;27;19911;-76
2021/12/31 13:51:48;;;;;;;;;;;14.10;99.90;;;;;;5141639;27;19911;-76
2021/12/31 13:54:16;;;;;;;;;;;14.10;99.90;;;;;;5144757;27;19923;-76
2021/12/31 13:56:48;;;;;;;;;;;14.20;99.90;;;;;;5141579;27;19923;-76
2021/12/31 13:59:33;;;;;;;;;;;14.20;99.90;;;;;;5142294;27;19907;-76
2021/12/31 14:02:01;;;;;;;;;;;14.20;99.90;;;;;;5142439;27;19998;-76
2021/12/31 14:04:27;;;;;;;;;;;14.20;99.90;;;;;;5143422;27;19915;-76
2021/12/31 14:06:56;;;;;;;;;;;14.20;99.90;;;;;;5143956;27;19950;-76
2021/12/31 14:09:21;;;;;;;;;;;14.20;99.90;;;;;;5152984;27;19907;-75
2021/12/31 14:11:47;;;;;;;;;;;14.20;99.90;;;;;;5135469;27;19918;-76
2021/12/31 14:14:13;;;;;;;;;;;14.20;99.90;;;;;;5150705;27;19934;-76
2021/12/31 14:16:38;;;;;;;;;;;14.10;99.90;;;;;;5132996;27;20305;-76
2021/12/31 14:19:04;;;;;;;;;;;14.10;99.90;;;;;;5133719;27;19911;-75
2021/12/31 14:21:29;;;;;;;;;;;14.10;99.90;;;;;;5134096;27;19917;-76